Yellow Mule RAWS (NWS)

Elevation
9200ft
Aggregated by Synoptic Data
Date/Time Wind Direction Wind Speed knots Wind Gust knots RH % Accumulated Precip Inches Air Temp Fahrenheit
2024-07-15 23:04 5 11 33 7.72 56
2024-07-15 22:04 10 16 29 7.72 60
2024-07-15 21:04 9 15 25 7.72 62
2024-07-15 20:04 7 16 29 7.72 62
2024-07-15 19:04 5 20 33 7.72 65
2024-07-15 18:04 8 18 30 7.72 67
2024-07-15 17:04 4 16 36 7.72 65
2024-07-15 16:04 9 18 35 7.72 66
2024-07-15 15:04 8 17 37 7.72 65
2024-07-15 14:04 12 20 39 7.72 62
2024-07-15 13:04 9 18 37 7.72 62
2024-07-15 12:04 9 16 39 7.72 62
2024-07-15 11:04 10 15 40 7.72 63
2024-07-15 10:04 10 13 42 7.72 59
2024-07-15 09:04 6 10 45 7.72 56
2024-07-15 08:04 7 10 46 7.72 55
2024-07-15 07:04 6 8 47 7.72 54
2024-07-15 06:04 5 8 44 7.72 55
2024-07-15 05:04 7 10 39 7.72 56
2024-07-15 04:04 8 11 43 7.72 55
2024-07-15 03:04 9 11 44 7.72 56
2024-07-15 02:04 8 11 43 7.72 56
2024-07-15 01:04 8 14 42 7.72 56
2024-07-15 00:04 9 11 44 7.72 58
2024-07-14 23:04 3 6 54 7.72 56
2024-07-14 22:04 4 8 55 7.72 55
2024-07-14 21:04 7 8 45 7.72 58
2024-07-14 20:04 3 5 51 7.72 59
2024-07-14 19:04 3 14 47 7.72 61
2024-07-14 18:04 10 37 47 7.72 59
2024-07-14 17:04 8 24 37 7.7 63
2024-07-14 16:04 10 14 31 7.7 65
2024-07-14 15:04 5 14 34 7.7 68
2024-07-14 14:04 10 25 28 7.7 71
2024-07-14 13:04 12 19 27 7.7 70
2024-07-14 12:04 10 17 26 7.7 70
2024-07-14 11:04 8 14 25 7.7 71
2024-07-14 10:04 6 13 27 7.7 67
2024-07-14 09:04 7 10 27 7.7 66
2024-07-14 08:04 6 11 31 7.7 62
2024-07-14 07:04 7 10 30 7.7 59
2024-07-14 06:04 8 9 29 7.7 59
2024-07-14 05:04 6 8 25 7.7 61
2024-07-14 04:04 5 6 22 7.7 63
2024-07-14 03:04 3 6 22 7.7 64
2024-07-14 02:04 5 9 24 7.7 62
2024-07-14 01:04 6 9 21 7.7 65
2024-07-14 00:04 7 9 22 7.7 64
2024-07-13 23:04 7 10 23 7.7 64